Time;durP1;ratioP1;P1;durP2;ratioP2;P2;SDS_P1;SDS_P2;PMS_P1;PMS_P2;Temp;Humidity;BMP_temperature;BMP_pressure;BME280_temperature;BME280_humidity;BME280_pressure;Samples;Min_cycle;Max_cycle;Signal;HPM_P1;HPM_P2
2022/06/16 00:00:09;;;;;;;2.95;2.65;;;;;;;23.68;46.96;100257.88;5034704;28;20919;-73
2022/06/16 00:02:48;;;;;;;4.00;2.40;;;;;;;23.59;47.38;100256.31;5034847;28;20400;-73
2022/06/16 00:05:17;;;;;;;3.00;2.88;;;;;;;23.45;47.73;100255.75;5034387;28;20924;-73
2022/06/16 00:07:43;;;;;;;3.53;3.10;;;;;;;23.34;48.02;100252.56;5034715;28;20482;-73
2022/06/16 00:10:09;;;;;;;5.17;2.70;;;;;;;23.23;48.11;100241.06;5034586;28;20846;-73
2022/06/16 00:12:36;;;;;;;3.30;2.70;;;;;;;23.13;48.41;100246.16;5034566;28;20398;-73
2022/06/16 00:15:01;;;;;;;3.17;2.97;;;;;;;23.03;48.59;100247.34;5034378;28;20389;-73
2022/06/16 00:17:27;;;;;;;3.33;3.13;;;;;;;22.92;48.64;100246.09;5034530;28;20808;-73
2022/06/16 00:19:52;;;;;;;3.83;2.90;;;;;;;22.78;48.74;100237.22;5034431;28;20940;-73
2022/06/16 00:22:18;;;;;;;3.47;2.75;;;;;;;22.72;48.90;100241.31;5034480;28;20482;-73
2022/06/16 00:24:44;;;;;;;4.50;2.78;;;;;;;22.74;48.87;100231.56;5034578;28;20395;-73
2022/06/16 00:27:09;;;;;;;2.87;2.47;;;;;;;22.79;48.68;100244.34;5034405;28;20406;-73
2022/06/16 00:29:34;;;;;;;2.60;2.40;;;;;;;22.85;48.38;100234.78;5033892;28;20462;-73
2022/06/16 00:32:01;;;;;;;3.93;2.70;;;;;;;22.90;48.41;100242.84;5034268;28;20406;-73
2022/06/16 00:34:26;;;;;;;3.35;3.05;;;;;;;22.89;48.33;100238.47;5034011;28;20397;-73
2022/06/16 00:36:52;;;;;;;5.22;3.22;;;;;;;22.89;48.88;100237.66;5034129;28;20474;-73
2022/06/16 00:39:17;;;;;;;3.97;2.87;;;;;;;22.92;48.86;100239.78;5034017;28;20814;-73
2022/06/16 00:41:43;;;;;;;3.03;2.83;;;;;;;22.92;48.83;100237.81;5034023;28;20791;-73
2022/06/16 00:44:16;;;;;;;4.20;3.00;;;;;;;22.91;48.83;100233.44;5033991;28;20391;-73
2022/06/16 00:46:42;;;;;;;3.80;2.65;;;;;;;22.92;48.60;100225.97;5033885;28;20452;-73
2022/06/16 00:49:12;;;;;;;3.87;2.70;;;;;;;22.85;48.92;100233.94;5016046;28;20707;-73
2022/06/16 00:51:49;;;;;;;8.98;3.58;;;;;;;22.72;49.23;100242.09;5034083;28;20446;-73
2022/06/16 00:54:31;;;;;;;5.63;2.90;;;;;;;22.59;49.54;100232.06;5033701;28;20395;-73
2022/06/16 00:57:05;;;;;;;3.65;3.08;;;;;;;22.56;49.94;100232.72;5015972;28;20754;-73
2022/06/16 00:59:31;;;;;;;3.83;3.10;;;;;;;22.46;50.12;100235.81;5033447;28;20486;-73
2022/06/16 01:01:56;;;;;;;3.67;3.37;;;;;;;22.42;50.33;100229.38;5033574;28;20487;-73
2022/06/16 01:07:09;;;;;;;5.90;2.90;;;;;;;22.45;50.08;100220.41;5033535;28;20449;-73
2022/06/16 01:09:36;;;;;;;4.93;3.40;;;;;;;22.42;49.97;100212.81;5033402;28;20415;-73
2022/06/16 01:15:46;;;;;;;3.33;3.00;;;;;;;22.21;50.65;100217.38;4953181;29;20389;-73
2022/06/16 01:18:39;;;;;;;3.27;2.97;;;;;;;21.95;51.26;100208.34;5018499;28;20388;-73
2022/06/16 01:21:37;;;;;;;4.30;3.17;;;;;;;21.79;51.55;100218.22;5033358;28;20399;-73
2022/06/16 01:24:21;;;;;;;3.78;3.53;;;;;;;21.82;51.23;100215.63;5033179;28;20797;-73
2022/06/16 01:27:26;;;;;;;3.90;3.08;;;;;;;21.76;51.08;100214.16;5033198;28;20387;-73
2022/06/16 01:30:04;;;;;;;3.20;2.90;;;;;;;21.63;51.10;100201.34;5032368;28;20461;-73
2022/06/16 01:32:35;;;;;;;2.87;2.67;;;;;;;21.60;51.07;100200.03;5033182;28;20856;-73
2022/06/16 01:35:33;;;;;;;3.40;3.10;;;;;;;21.70;50.82;100215.47;5015204;28;20751;-73
2022/06/16 01:38:18;;;;;;;4.65;2.90;;;;;;;21.78;50.54;100208.31;5018693;28;20407;-73
2022/06/16 01:40:58;;;;;;;5.35;3.05;;;;;;;21.79;50.34;100209.94;5015299;28;20399;-73
2022/06/16 01:43:33;;;;;;;3.20;2.80;;;;;;;21.67;50.30;100203.13;5032738;28;20427;-73
2022/06/16 01:46:16;;;;;;;3.15;2.63;;;;;;;21.66;50.08;100208.97;5032859;28;20882;-73
2022/06/16 01:48:46;;;;;;;3.85;2.65;;;;;;;21.74;50.05;100202.63;5015055;28;20466;-73
2022/06/16 01:51:27;;;;;;;2.60;2.40;;;;;;;21.78;49.99;100200.03;5032126;28;20404;-73
2022/06/16 01:54:08;;;;;;;3.17;2.78;;;;;;;21.88;50.31;100206.03;5032651;28;20399;-73
2022/06/16 01:56:45;;;;;;;2.70;2.53;;;;;;;21.85;50.87;100200.38;5014869;28;20398;-73
2022/06/16 01:59:20;;;;;;;3.63;3.05;;;;;;;21.75;51.55;100201.50;5032362;28;20415;-73
2022/06/16 02:01:49;;;;;;;4.90;3.30;;;;;;;21.68;52.03;100202.00;5032564;28;20388;-73
2022/06/16 02:04:20;;;;;;;3.45;3.15;;;;;;;21.77;51.98;100192.91;5032421;28;20393;-73
2022/06/16 02:06:52;;;;;;;3.95;3.10;;;;;;;21.74;52.19;100202.63;5032374;28;20465;-73
2022/06/16 02:09:27;;;;;;;3.55;3.25;;;;;;;21.70;52.16;100205.22;5017118;28;20438;-73
2022/06/16 02:11:55;;;;;;;3.47;3.17;;;;;;;21.75;52.06;100204.25;5032323;28;20478;-73
2022/06/16 02:14:32;;;;;;;3.20;2.70;;;;;;;21.84;51.64;100207.00;5032238;28;20384;-73
2022/06/16 02:16:58;;;;;;;4.18;3.10;;;;;;;21.84;51.35;100213.34;5032185;28;20414;-73
2022/06/16 02:19:25;;;;;;;3.20;3.00;;;;;;;21.90;51.18;100206.53;5032114;28;20399;-73
2022/06/16 02:21:51;;;;;;;2.97;2.78;;;;;;;21.95;50.47;100219.38;5032170;28;20383;-73
2022/06/16 02:24:20;;;;;;;7.25;3.00;;;;;;;21.92;50.17;100223.59;5032039;28;20530;-73
2022/06/16 02:26:47;;;;;;;4.10;3.05;;;;;;;21.87;50.38;100226.47;5032022;28;20387;-73
2022/06/16 02:29:29;;;;;;;2.72;2.55;;;;;;;21.78;50.71;100225.69;5031587;28;20411;-74
2022/06/16 02:32:00;;;;;;;2.92;2.72;;;;;;;21.64;51.10;100230.53;5032067;28;20399;-73
2022/06/16 02:35:08;;;;;;;2.95;2.70;;;;;;;21.47;51.55;100220.31;5031855;28;20478;-73
2022/06/16 02:37:56;;;;;;;3.80;2.80;;;;;;;21.36;51.68;100215.44;5031919;28;20517;-73
2022/06/16 02:40:33;;;;;;;3.00;2.80;;;;;;;21.23;52.35;100205.38;5031753;28;20383;-73
2022/06/16 02:43:11;;;;;;;4.13;3.33;;;;;;;21.21;52.33;100213.94;5031851;28;20395;-73
2022/06/16 02:46:02;;;;;;;4.55;2.78;;;;;;;21.28;52.09;100211.53;5014182;28;20793;-73
2022/06/16 02:48:38;;;;;;;5.82;3.13;;;;;;;21.18;52.35;100212.66;5031652;28;20449;-73
2022/06/16 02:51:38;;;;;;;3.10;2.80;;;;;;;21.18;52.54;100207.13;5031684;28;20506;-73
2022/06/16 02:54:20;;;;;;;3.30;2.65;;;;;;;21.16;52.52;100209.41;5031605;28;20397;-73
2022/06/16 02:57:25;;;;;;;3.50;3.30;;;;;;;21.17;52.70;100207.47;5031742;28;20383;-73
2022/06/16 02:59:57;;;;;;;3.45;3.13;;;;;;;21.19;52.66;100218.97;5031469;28;20403;-73
2022/06/16 03:02:24;;;;;;;3.58;2.97;;;;;;;21.21;52.49;100216.69;5015532;28;20395;-73
2022/06/16 03:04:53;;;;;;;3.47;2.93;;;;;;;21.20;52.62;100215.91;5031439;28;20410;-73
2022/06/16 03:07:19;;;;;;;5.15;3.05;;;;;;;21.20;52.43;100220.59;5031648;28;20460;-73
2022/06/16 03:09:45;;;;;;;4.53;3.53;;;;;;;21.11;52.64;100234.34;5031390;28;20411;-73
2022/06/16 03:12:12;;;;;;;3.00;2.90;;;;;;;21.02;52.93;100233.47;5031621;28;20866;-73
2022/06/16 03:14:37;;;;;;;2.95;2.80;;;;;;;21.02;52.98;100238.19;5031460;28;20821;-73
2022/06/16 03:17:04;;;;;;;3.60;3.30;;;;;;;21.03;53.10;100237.88;5031433;28;20474;-73
2022/06/16 03:19:29;;;;;;;3.05;2.75;;;;;;;21.07;52.88;100230.59;5031447;28;20465;-73
2022/06/16 03:21:54;;;;;;;3.87;2.80;;;;;;;21.10;52.42;100224.47;5031373;28;20400;-73
2022/06/16 03:24:20;;;;;;;2.80;2.40;;;;;;;21.17;51.88;100235.03;5031459;28;20842;-73
2022/06/16 03:26:46;;;;;;;4.47;2.90;;;;;;;21.22;51.58;100245.88;5031413;28;20391;-73
2022/06/16 03:29:11;;;;;;;2.63;2.43;;;;;;;21.27;51.27;100250.44;5030842;28;20414;-73
2022/06/16 03:31:36;;;;;;;5.37;3.17;;;;;;;21.32;51.31;100258.56;5031255;28;20391;-73
2022/06/16 03:34:02;;;;;;;3.42;3.13;;;;;;;21.33;51.24;100258.25;5031255;28;20391;-73
2022/06/16 03:36:27;;;;;;;5.27;3.20;;;;;;;21.33;51.29;100261.00;5031476;28;20936;-73
2022/06/16 03:38:52;;;;;;;4.13;3.30;;;;;;;21.22;51.50;100256.91;5031263;28;20426;-73
2022/06/16 03:41:18;;;;;;;4.07;2.97;;;;;;;21.13;51.62;100272.63;5031217;28;20395;-73
2022/06/16 03:43:43;;;;;;;4.50;2.80;;;;;;;21.07;51.79;100277.44;5031272;28;20391;-73
2022/06/16 03:46:11;;;;;;;3.50;3.00;;;;;;;21.01;52.01;100275.94;5031216;28;20508;-73
2022/06/16 03:48:37;;;;;;;3.28;2.97;;;;;;;20.93;52.06;100279.47;5031171;28;20418;-73
2022/06/16 03:51:04;;;;;;;2.80;2.60;;;;;;;20.85;52.53;100280.25;5031045;28;20417;-73
2022/06/16 03:53:29;;;;;;;3.50;3.30;;;;;;;20.85;52.51;100279.41;5015860;28;20394;-73
2022/06/16 03:55:55;;;;;;;3.17;2.93;;;;;;;20.79;52.67;100288.97;5031155;28;20470;-73
2022/06/16 03:58:20;;;;;;;3.93;3.00;;;;;;;20.79;52.69;100291.72;5030809;28;20521;-73
2022/06/16 04:00:45;;;;;;;3.70;3.40;;;;;;;20.81;52.76;100306.00;5013353;28;20407;-73
2022/06/16 04:05:55;;;;;;;4.37;3.30;;;;;;;20.87;52.34;100313.81;5031070;28;20485;-73
2022/06/16 04:08:20;;;;;;;3.83;3.40;;;;;;;20.88;52.35;100312.66;5030922;28;20794;-73
2022/06/16 04:10:47;;;;;;;3.13;2.92;;;;;;;20.81;52.76;100315.06;5030862;28;20832;-73
2022/06/16 04:13:13;;;;;;;3.40;3.20;;;;;;;20.76;53.36;100325.41;5031272;28;20819;-73
2022/06/16 04:15:39;;;;;;;3.28;2.95;;;;;;;20.75;53.70;100326.53;5034567;28;20395;-73
2022/06/16 04:18:05;;;;;;;5.45;3.05;;;;;;;20.78;53.70;100325.91;5034729;28;20402;-73
2022/06/16 04:20:31;;;;;;;4.57;3.28;;;;;;;20.84;53.53;100319.13;5034405;28;20754;-73
2022/06/16 04:22:57;;;;;;;2.88;2.42;;;;;;;20.95;53.27;100312.19;5034399;28;20445;-73
2022/06/16 04:25:30;;;;;;;3.73;2.60;;;;;;;20.91;53.05;100314.00;5034404;28;20423;-73
2022/06/16 04:27:58;;;;;;;3.35;2.70;;;;;;;20.88;52.52;100320.13;5033973;28;20925;-73
2022/06/16 04:30:24;;;;;;;3.28;2.70;;;;;;;20.86;52.46;100314.94;5034165;28;20415;-73
2022/06/16 04:32:49;;;;;;;3.47;2.50;;;;;;;20.92;51.99;100321.09;5034370;28;20449;-73
2022/06/16 04:35:14;;;;;;;5.80;2.83;;;;;;;20.95;51.57;100312.19;5034273;28;20422;-73
2022/06/16 04:37:39;;;;;;;3.05;2.85;;;;;;;20.94;51.37;100310.59;5034205;28;20792;-73
2022/06/16 04:40:06;;;;;;;2.97;2.53;;;;;;;20.95;51.25;100315.78;5034252;28;20395;-73
2022/06/16 04:42:31;;;;;;;5.07;2.88;;;;;;;21.05;50.80;100321.00;5034097;28;20414;-73
2022/06/16 04:44:56;;;;;;;3.90;2.73;;;;;;;21.13;50.42;100328.53;5034363;28;20388;-73
2022/06/16 04:47:21;;;;;;;2.70;2.50;;;;;;;21.19;50.41;100331.97;5034220;28;20892;-73
2022/06/16 04:49:48;;;;;;;3.43;2.53;;;;;;;21.25;50.19;100329.88;5016169;28;20506;-73
2022/06/16 04:52:18;;;;;;;5.45;2.88;;;;;;;21.24;49.25;100331.03;5033934;28;20446;-73
2022/06/16 04:54:47;;;;;;;3.15;2.85;;;;;;;21.19;49.26;100335.53;5033801;28;20402;-73
2022/06/16 04:57:13;;;;;;;4.45;2.30;;;;;;;21.15;49.07;100323.50;5033582;28;20945;-73
2022/06/16 04:59:39;;;;;;;3.40;2.47;;;;;;;21.16;49.10;100341.69;5033787;28;20542;-73
2022/06/16 05:02:05;;;;;;;2.50;2.25;;;;;;;21.23;49.05;100337.66;5033694;28;20399;-73
2022/06/16 05:04:30;;;;;;;4.80;2.40;;;;;;;21.28;48.91;100335.56;5015472;28;20430;-73
2022/06/16 05:06:56;;;;;;;2.83;2.60;;;;;;;21.33;49.08;100335.44;5033592;28;20421;-73
2022/06/16 05:09:22;;;;;;;2.42;2.33;;;;;;;21.40;48.81;100343.22;5033465;28;20435;-73
2022/06/16 05:11:47;;;;;;;3.58;2.53;;;;;;;21.46;48.74;100351.03;5015676;28;20478;-73
2022/06/16 05:14:13;;;;;;;3.30;2.40;;;;;;;21.51;48.75;100345.38;5033436;28;20470;-73
2022/06/16 05:16:38;;;;;;;2.67;2.50;;;;;;;21.57;48.33;100343.28;5033499;28;20387;-73
2022/06/16 05:19:03;;;;;;;3.97;2.80;;;;;;;21.64;47.97;100351.88;5033399;28;20881;-73
2022/06/16 05:21:29;;;;;;;3.00;2.70;;;;;;;21.70;47.31;100350.63;5033480;28;20398;-73
2022/06/16 05:23:54;;;;;;;6.03;2.60;;;;;;;21.72;47.72;100348.34;5033858;28;20402;-73
2022/06/16 05:26:19;;;;;;;3.70;3.30;;;;;;;21.70;48.54;100345.88;5032385;28;20394;-73
2022/06/16 05:28:44;;;;;;;4.00;3.00;;;;;;;21.74;49.39;100343.31;5033151;28;20402;-73
2022/06/16 05:31:10;;;;;;;4.03;2.70;;;;;;;21.79;49.84;100345.09;5033132;28;20502;-73
2022/06/16 05:33:35;;;;;;;5.22;2.63;;;;;;;21.84;50.24;100343.00;5033031;28;20395;-73
2022/06/16 05:36:10;;;;;;;3.40;3.10;;;;;;;21.83;50.49;100344.16;5033210;28;20383;-73
2022/06/16 05:38:37;;;;;;;5.85;3.35;;;;;;;21.73;51.02;100349.97;5032927;28;20473;-73
2022/06/16 05:41:07;;;;;;;5.25;3.30;;;;;;;21.76;51.08;100354.84;5032965;28;20383;-73
2022/06/16 05:43:32;;;;;;;3.40;2.70;;;;;;;21.81;51.34;100343.66;5033032;28;20387;-73
2022/06/16 05:45:59;;;;;;;3.42;2.70;;;;;;;21.94;51.01;100352.94;5032922;28;20398;-73
2022/06/16 05:48:24;;;;;;;3.72;2.83;;;;;;;22.01;51.29;100367.06;5032853;28;20399;-73
2022/06/16 05:50:50;;;;;;;4.20;3.10;;;;;;;22.03;51.58;100371.13;5032697;28;20530;-73
2022/06/16 05:53:15;;;;;;;3.30;2.83;;;;;;;22.03;51.76;100373.88;5014881;28;20395;-73
2022/06/16 05:55:41;;;;;;;9.57;5.60;;;;;;;22.00;51.74;100374.53;5032952;28;20384;-73
2022/06/16 05:58:06;;;;;;;4.67;4.17;;;;;;;22.03;52.01;100387.69;5032200;28;20761;-73
2022/06/16 06:00:31;;;;;;;3.40;3.20;;;;;;;22.00;52.47;100382.00;5032614;28;20399;-73
2022/06/16 06:02:58;;;;;;;8.17;3.07;;;;;;;21.97;52.43;100391.75;5014775;28;20478;-73
2022/06/16 06:05:26;;;;;;;4.75;2.72;;;;;;;21.97;52.36;100391.75;5032367;28;20497;-73
2022/06/16 06:18:48;;;;;;;5.13;2.75;;;;;;;22.59;50.17;100414.34;5032493;28;20738;-73
2022/06/16 06:21:14;;;;;;;3.97;2.90;;;;;;;22.58;49.76;100415.50;5032246;28;20399;-73
2022/06/16 06:23:39;;;;;;;3.88;3.03;;;;;;;22.60;49.84;100429.78;5032134;28;20428;-73
2022/06/16 06:26:04;;;;;;;2.70;2.50;;;;;;;22.59;49.76;100430.91;5031859;28;20403;-73
2022/06/16 06:28:30;;;;;;;2.87;2.63;;;;;;;22.67;49.63;100441.19;5032030;28;20399;-73
2022/06/16 06:30:55;;;;;;;2.83;2.20;;;;;;;22.78;49.41;100447.22;5031976;28;20411;-73
2022/06/16 06:33:21;;;;;;;2.70;2.30;;;;;;;22.91;48.80;100450.94;5031984;28;20409;-73
2022/06/16 06:35:46;;;;;;;2.60;2.40;;;;;;;23.05;48.17;100457.09;5031951;28;20391;-73
2022/06/16 06:38:12;;;;;;;3.10;2.53;;;;;;;23.17;47.84;100458.03;5031775;28;20470;-73
2022/06/16 06:40:37;;;;;;;3.03;2.70;;;;;;;23.26;47.70;100464.34;5031863;28;20422;-73
2022/06/16 06:43:04;;;;;;;3.90;2.53;;;;;;;23.25;47.31;100470.19;5031887;28;20394;-73
2022/06/16 06:45:29;;;;;;;5.07;2.95;;;;;;;23.19;47.15;100466.00;5031761;28;20392;-73
2022/06/16 06:47:55;;;;;;;2.80;2.40;;;;;;;23.19;47.15;100471.53;5031992;28;20449;-73
2022/06/16 06:50:22;;;;;;;3.95;2.40;;;;;;;23.21;47.50;100474.78;5031697;28;20885;-73
2022/06/16 06:52:48;;;;;;;5.65;2.38;;;;;;;23.28;46.84;100475.09;5031660;28;20395;-73
2022/06/16 06:55:14;;;;;;;7.00;2.60;;;;;;;23.25;46.91;100479.31;5031663;28;20474;-73
2022/06/16 06:57:39;;;;;;;4.00;2.27;;;;;;;23.20;47.20;100489.75;5031403;28;20489;-73
2022/06/16 07:00:05;;;;;;;2.67;2.40;;;;;;;23.17;47.36;100488.44;5031504;28;20434;-73
2022/06/16 07:02:30;;;;;;;2.33;2.08;;;;;;;23.16;47.55;100480.47;5031512;28;20395;-73
2022/06/16 07:04:56;;;;;;;3.77;2.30;;;;;;;23.21;47.31;100486.66;5031009;28;20398;-73
2022/06/16 07:07:23;;;;;;;3.70;2.03;;;;;;;23.28;47.09;100491.69;5013910;28;20391;-73
2022/06/16 07:09:49;;;;;;;4.30;2.30;;;;;;;23.32;47.15;100486.28;5031344;28;20450;-73
2022/06/16 07:12:15;;;;;;;3.50;2.00;;;;;;;23.40;46.29;100491.00;5031494;28;20479;-73
2022/06/16 07:14:41;;;;;;;4.00;2.08;;;;;;;23.45;45.80;100486.13;5031399;28;20391;-73
2022/06/16 07:17:07;;;;;;;4.80;1.67;;;;;;;23.51;45.34;100497.84;5031451;28;20818;-73
2022/06/16 07:19:35;;;;;;;6.80;2.10;;;;;;;23.51;45.46;100504.16;5013338;28;20768;-73
2022/06/16 07:22:01;;;;;;;5.15;1.98;;;;;;;23.56;45.22;100506.75;5031311;28;20478;-73
2022/06/16 07:24:26;;;;;;;2.50;1.70;;;;;;;23.56;45.50;100509.53;5031282;28;20505;-73
2022/06/16 07:26:52;;;;;;;6.10;2.17;;;;;;;23.60;45.49;100506.91;5013436;28;20514;-73
2022/06/16 07:29:17;;;;;;;2.50;2.30;;;;;;;23.66;45.57;100511.94;5031176;28;20422;-73
2022/06/16 07:31:43;;;;;;;4.85;2.50;;;;;;;23.68;45.46;100508.81;5031285;28;20407;-73
2022/06/16 07:34:09;;;;;;;3.90;2.30;;;;;;;23.72;45.22;100509.78;5013546;28;20530;-73
2022/06/16 07:36:34;;;;;;;2.35;2.15;;;;;;;23.75;44.91;100512.72;5031257;28;20429;-73
2022/06/16 07:38:59;;;;;;;3.10;2.00;;;;;;;23.77;45.03;100512.41;5031237;28;20403;-73
2022/06/16 07:41:36;;;;;;;2.27;1.77;;;;;;;23.78;45.19;100514.81;5030914;28;20482;-73
2022/06/16 07:44:11;;;;;;;6.45;2.92;;;;;;;23.82;45.08;100511.38;5031179;28;20401;-73
2022/06/16 07:46:39;;;;;;;4.38;2.17;;;;;;;23.87;45.10;100516.75;5031178;28;20433;-73
2022/06/16 07:49:06;;;;;;;6.18;2.20;;;;;;;23.92;45.03;100519.31;5033006;28;20879;-73
2022/06/16 07:51:31;;;;;;;4.07;2.35;;;;;;;24.01;44.68;100517.31;5035090;28;20389;-73
2022/06/16 07:53:57;;;;;;;2.80;2.00;;;;;;;24.03;44.93;100517.81;5034920;28;20825;-73
2022/06/16 07:56:22;;;;;;;3.87;1.90;;;;;;;24.10;44.80;100516.16;5034655;28;20461;-73
2022/06/16 07:58:48;;;;;;;2.60;1.98;;;;;;;24.22;44.86;100519.03;5034986;28;20395;-73
2022/06/16 08:01:14;;;;;;;3.07;1.87;;;;;;;24.27;44.73;100510.53;5034782;28;20790;-73
2022/06/16 08:03:39;;;;;;;2.65;2.20;;;;;;;24.26;44.82;100517.25;5033487;28;20382;-73
2022/06/16 08:06:09;;;;;;;6.73;2.20;;;;;;;24.31;45.12;100513.44;5034546;28;20447;-73
2022/06/16 08:08:35;;;;;;;2.30;2.03;;;;;;;24.35;44.80;100525.50;5034645;28;20414;-73
2022/06/16 08:11:00;;;;;;;3.47;2.10;;;;;;;24.37;44.46;100525.16;5034506;28;20472;-73
2022/06/16 08:13:28;;;;;;;3.67;2.20;;;;;;;24.38;44.61;100527.59;5033294;28;20387;-73
2022/06/16 08:15:54;;;;;;;2.40;2.15;;;;;;;24.42;44.33;100527.72;5034691;28;20394;-73
2022/06/16 08:18:22;;;;;;;3.17;2.00;;;;;;;24.50;44.45;100530.44;5034552;28;20383;-73
2022/06/16 08:20:48;;;;;;;4.88;2.17;;;;;;;24.60;44.24;100530.03;5034421;28;20415;-73
2022/06/16 08:23:14;;;;;;;7.57;2.50;;;;;;;24.65;43.92;100529.84;5034197;28;20390;-72
2022/06/16 08:25:42;;;;;;;2.43;2.17;;;;;;;24.68;43.57;100531.94;5034185;28;20400;-73
2022/06/16 08:28:08;;;;;;;2.63;2.20;;;;;;;24.74;43.47;100530.59;5034514;28;20391;-73
2022/06/16 08:30:34;;;;;;;2.75;2.22;;;;;;;24.82;43.52;100539.19;5034190;28;20422;-72
2022/06/16 08:33:02;;;;;;;4.00;2.13;;;;;;;24.92;43.80;100545.16;5034344;28;20742;-73
2022/06/16 08:35:27;;;;;;;3.40;2.38;;;;;;;25.03;43.35;100546.38;5034297;28;20394;-72
2022/06/16 08:37:53;;;;;;;2.50;2.10;;;;;;;25.13;43.22;100542.38;5034202;28;20396;-73
2022/06/16 08:40:19;;;;;;;2.60;2.27;;;;;;;25.22;43.19;100554.22;5034238;28;20882;-73
2022/06/16 08:43:08;;;;;;;3.57;2.20;;;;;;;25.35;42.50;100546.75;5016359;28;20395;-73
2022/06/16 08:45:46;;;;;;;4.25;2.10;;;;;;;25.51;42.14;100548.56;5034238;28;20415;-73
2022/06/16 08:48:33;;;;;;;6.20;2.30;;;;;;;25.65;41.95;100549.03;5033844;28;20396;-72
2022/06/16 08:51:14;;;;;;;3.20;2.40;;;;;;;25.74;42.13;100555.34;5016089;28;20790;-73
2022/06/16 08:53:54;;;;;;;4.35;2.30;;;;;;;25.80;41.73;100553.13;5033924;28;20471;-73
2022/06/16 08:56:50;;;;;;;2.10;1.85;;;;;;;25.87;41.36;100552.56;5033410;28;20750;-72
2022/06/16 08:59:27;;;;;;;2.77;2.13;;;;;;;25.95;41.02;100546.13;5015490;28;20418;-73
2022/06/16 09:02:08;;;;;;;2.00;1.90;;;;;;;26.06;40.87;100555.59;5033126;28;20736;-72
2022/06/16 09:04:46;;;;;;;2.58;2.00;;;;;;;26.12;40.80;100543.09;5033582;28;20402;-73
2022/06/16 09:07:18;;;;;;;3.03;2.20;;;;;;;26.25;40.57;100553.09;5033932;28;20419;-73
2022/06/16 09:10:14;;;;;;;2.17;2.08;;;;;;;26.43;40.69;100553.66;5033578;28;20403;-73
2022/06/16 09:13:11;;;;;;;2.05;1.85;;;;;;;26.69;40.43;100556.88;5033513;28;20453;-73
2022/06/16 09:16:08;;;;;;;3.35;1.92;;;;;;;26.82;39.58;100552.94;5033333;28;20394;-72
2022/06/16 09:19:09;;;;;;;2.60;1.90;;;;;;;26.94;39.65;100555.69;5033389;28;20475;-72
2022/06/16 09:22:06;;;;;;;2.03;1.92;;;;;;;27.16;39.67;100568.25;5033316;28;20481;-73
2022/06/16 09:24:59;;;;;;;2.30;2.20;;;;;;;27.25;39.17;100568.91;5028946;28;20746;-73
2022/06/16 09:27:31;;;;;;;2.20;2.08;;;;;;;27.33;39.06;100579.88;5033159;28;20870;-73
2022/06/16 09:30:01;;;;;;;2.88;1.90;;;;;;;27.47;38.92;100573.94;5032929;28;20418;-72
2022/06/16 09:32:32;;;;;;;3.27;2.10;;;;;;;27.57;38.69;100572.63;5033159;28;20421;-72
2022/06/16 09:35:10;;;;;;;1.65;1.65;;;;;;;27.60;38.67;100566.31;5033094;28;20383;-73
2022/06/16 09:37:46;;;;;;;2.65;2.05;;;;;;;27.64;38.18;100575.59;5014786;28;20909;-73
2022/06/16 09:40:27;;;;;;;2.28;2.10;;;;;;;27.87;38.37;100573.84;5032984;28;20448;-73
2022/06/16 09:43:25;;;;;;;2.60;1.92;;;;;;;28.10;37.84;100574.06;5032892;28;20388;-73
2022/06/16 09:45:56;;;;;;;3.88;2.25;;;;;;;28.26;37.74;100577.63;5032048;28;20411;-73
2022/06/16 09:48:31;;;;;;;4.55;2.47;;;;;;;28.39;37.78;100578.38;5032941;28;20493;-74
2022/06/16 09:51:09;;;;;;;4.55;2.53;;;;;;;28.47;37.42;100580.94;5014897;28;20403;-73
2022/06/16 09:53:43;;;;;;;1.83;1.73;;;;;;;28.65;36.96;100582.16;5026838;28;20395;-73
2022/06/16 09:56:30;;;;;;;3.40;2.50;;;;;;;29.09;36.67;100585.59;5031454;28;20467;-73
2022/06/16 09:59:08;;;;;;;2.00;1.90;;;;;;;29.54;35.32;100589.72;5032550;28;20383;-73
2022/06/16 10:02:00;;;;;;;2.30;1.70;;;;;;;31.03;32.60;100595.88;5014730;28;20387;-73
2022/06/16 10:04:26;;;;;;;1.50;1.40;;;;;;;32.69;29.94;100586.44;5028426;28;20399;-73
2022/06/16 10:07:16;;;;;;;4.18;1.60;;;;;;;33.63;28.58;100602.16;5032296;28;20414;-73
2022/06/16 10:09:50;;;;;;;2.53;1.48;;;;;;;34.39;26.79;100618.75;5032350;28;20407;-73
2022/06/16 10:12:48;;;;;;;1.77;1.30;;;;;;;34.69;26.06;100615.56;5032115;28;20402;-73
2022/06/16 10:15:22;;;;;;;9.98;1.65;;;;;;;35.12;25.69;100610.66;5031953;28;20893;-73
2022/06/16 10:17:50;;;;;;;1.40;1.27;;;;;;;35.65;24.48;100621.72;5014503;28;20425;-73
2022/06/16 10:20:18;;;;;;;2.80;1.17;;;;;;;36.01;23.61;100628.75;5032264;28;20474;-73
2022/06/16 10:22:49;;;;;;;1.88;1.17;;;;;;;36.65;23.10;100622.66;5032077;28;20553;-73
2022/06/16 10:25:23;;;;;;;3.22;1.85;;;;;;;37.01;22.57;100623.91;5032200;28;20398;-73
2022/06/16 10:27:54;;;;;;;3.33;1.38;;;;;;;37.58;21.54;100626.84;5032272;28;20441;-73
2022/06/16 10:30:38;;;;;;;2.63;1.87;;;;;;;38.08;20.57;100620.50;5032170;28;20542;-73
2022/06/16 10:33:10;;;;;;;1.48;1.30;;;;;;;38.54;19.71;100623.41;5032081;28;20397;-73
2022/06/16 10:35:36;;;;;;;2.30;1.63;;;;;;;38.68;19.74;100631.63;5032119;28;20388;-71
2022/06/16 10:38:03;;;;;;;1.90;1.38;;;;;;;38.97;19.72;100637.59;5031981;28;20391;-71
2022/06/16 10:40:38;;;;;;;6.10;2.13;;;;;;;39.17;19.38;100643.28;5031907;28;20402;-73
2022/06/16 10:43:16;;;;;;;4.53;2.17;;;;;;;39.46;19.59;100638.66;5031844;28;20410;-71
2022/06/16 10:45:42;;;;;;;1.98;1.30;;;;;;;39.79;18.75;100640.38;5031627;28;20410;-71
2022/06/16 10:48:19;;;;;;;2.55;1.67;;;;;;;39.90;18.59;100640.13;5031661;28;20391;-70
2022/06/16 10:50:56;;;;;;;2.13;1.17;;;;;;;39.90;18.49;100654.34;5031715;28;20494;-71
2022/06/16 10:53:28;;;;;;;2.63;1.30;;;;;;;39.82;18.77;100653.69;5031682;28;20396;-71
2022/06/16 10:56:02;;;;;;;3.08;1.08;;;;;;;40.28;18.24;100660.34;5031858;28;20796;-71
2022/06/16 10:58:31;;;;;;;3.63;1.83;;;;;;;40.33;18.04;100654.13;5031545;28;20910;-71
2022/06/16 11:01:16;;;;;;;4.78;1.25;;;;;;;40.98;17.93;100657.75;5031693;28;20406;-71
2022/06/16 11:03:45;;;;;;;2.22;1.25;;;;;;;41.08;17.44;100667.22;5031489;28;20925;-71
2022/06/16 11:06:14;;;;;;;1.35;1.23;;;;;;;41.30;17.39;100654.00;5031394;28;20537;-71
2022/06/16 11:08:45;;;;;;;3.67;1.30;;;;;;;41.68;17.43;100666.31;5031543;28;20866;-71
2022/06/16 11:11:11;;;;;;;2.95;1.20;;;;;;;41.67;16.79;100664.72;5031587;28;20429;-71
2022/06/16 11:13:46;;;;;;;1.57;1.20;;;;;;;41.72;17.56;100652.78;5031149;28;20392;-71
2022/06/16 11:16:26;;;;;;;6.75;1.50;;;;;;;41.73;16.71;100647.88;5031558;28;20387;-71
2022/06/16 11:18:53;;;;;;;2.28;1.52;;;;;;;41.67;17.37;100652.53;5031498;28;20898;-71
2022/06/16 11:21:22;;;;;;;3.10;1.55;;;;;;;41.81;16.99;100643.59;5031445;28;20422;-71
2022/06/16 11:23:54;;;;;;;3.92;1.80;;;;;;;42.02;16.43;100645.78;5032025;28;20823;-71
2022/06/16 11:26:42;;;;;;;3.58;1.70;;;;;;;42.20;16.88;100648.06;5035625;28;20438;-71
2022/06/16 11:29:10;;;;;;;1.67;1.20;;;;;;;41.99;16.45;100649.50;5035630;28;20437;-71
2022/06/16 11:32:17;;;;;;;1.80;1.50;;;;;;;42.28;16.34;100653.06;5035410;28;20870;-71
2022/06/16 11:34:43;;;;;;;1.45;1.33;;;;;;;42.44;16.51;100660.69;5015887;28;20406;-71
2022/06/16 11:37:09;;;;;;;3.05;1.30;;;;;;;41.82;16.46;100651.69;5035351;28;20391;-71
2022/06/16 11:39:52;;;;;;;2.57;1.63;;;;;;;41.32;17.33;100645.84;5035333;28;20903;-71
2022/06/16 11:42:44;;;;;;;1.57;1.27;;;;;;;41.72;16.84;100649.94;5035282;28;20864;-71
2022/06/16 11:45:48;;;;;;;4.55;1.60;;;;;;;41.89;16.52;100647.81;5034941;28;20499;-71
2022/06/16 11:48:17;;;;;;;4.28;1.35;;;;;;;41.64;16.97;100639.22;5025375;28;20861;-71
2022/06/16 11:50:54;;;;;;;3.45;1.60;;;;;;;41.59;16.88;100649.13;5035042;28;20407;-71
2022/06/16 11:53:33;;;;;;;2.03;1.48;;;;;;;41.37;17.49;100643.25;5034987;28;20394;-70
2022/06/16 11:56:12;;;;;;;3.08;1.38;;;;;;;41.22;17.74;100636.38;5035036;28;20399;-71
2022/06/16 11:59:06;;;;;;;3.95;1.48;;;;;;;41.48;17.49;100640.09;5035102;28;20394;-70
2022/06/16 12:01:43;;;;;;;3.08;1.60;;;;;;;41.65;16.71;100629.44;5022003;28;20390;-70
2022/06/16 12:04:30;;;;;;;2.40;1.50;;;;;;;41.81;17.06;100635.84;5034879;28;20403;-71